createdAt,value
2018-09-28T00:00:51.382Z,21.00
2018-09-28T00:03:19.881Z,21.00
2018-09-28T00:05:48.243Z,21.00
2018-09-28T00:08:16.636Z,20.90
2018-09-28T00:10:45.129Z,20.80
2018-09-28T00:13:13.532Z,20.80
2018-09-28T00:15:41.795Z,20.80
2018-09-28T00:18:10.325Z,20.80
2018-09-28T00:20:38.828Z,20.80
2018-09-28T00:23:07.121Z,20.70
2018-09-28T00:25:35.811Z,20.70
2018-09-28T00:28:04.530Z,20.70
2018-09-28T00:30:33.203Z,20.60
2018-09-28T00:33:01.574Z,20.50
2018-09-28T00:35:30.023Z,20.50
2018-09-28T00:37:58.511Z,20.50
2018-09-28T00:40:26.991Z,20.40
2018-09-28T00:42:55.399Z,20.30
2018-09-28T00:45:24.092Z,20.20
2018-09-28T00:47:52.685Z,20.20
2018-09-28T00:50:21.112Z,20.10
2018-09-28T00:52:49.600Z,20.20
2018-09-28T00:55:18.035Z,20.20
2018-09-28T00:57:46.401Z,20.10
2018-09-28T01:00:14.856Z,20.10
2018-09-28T01:02:43.249Z,20.10
2018-09-28T01:05:11.688Z,20.00
2018-09-28T01:07:40.065Z,20.00
2018-09-28T01:10:08.495Z,20.00
2018-09-28T01:12:36.881Z,20.00
2018-09-28T01:15:05.379Z,19.90
2018-09-28T01:17:33.656Z,19.90
2018-09-28T01:20:01.996Z,19.90
2018-09-28T01:22:30.404Z,19.90
2018-09-28T01:24:58.739Z,19.80
2018-09-28T01:27:27.203Z,19.90
2018-09-28T01:29:55.567Z,19.90
2018-09-28T01:32:24.022Z,19.90
2018-09-28T01:34:52.356Z,19.90
2018-09-28T01:37:20.709Z,19.80
2018-09-28T01:39:49.060Z,19.80
2018-09-28T01:42:17.412Z,19.70
2018-09-28T01:44:45.781Z,19.60
2018-09-28T01:47:14.148Z,19.60
2018-09-28T01:49:42.529Z,19.60
2018-09-28T01:52:10.895Z,19.50
2018-09-28T01:54:39.329Z,19.50
2018-09-28T01:57:07.831Z,19.40
2018-09-28T01:59:36.287Z,19.40
2018-09-28T02:02:04.648Z,19.30
2018-09-28T02:04:32.936Z,19.30
2018-09-28T02:07:01.419Z,19.30
2018-09-28T02:09:29.684Z,19.20
2018-09-28T02:11:58.037Z,19.20
2018-09-28T02:14:26.379Z,19.10
2018-09-28T02:16:54.756Z,19.00
2018-09-28T02:19:23.209Z,18.90
2018-09-28T02:21:51.625Z,18.90
2018-09-28T02:24:19.971Z,18.90
2018-09-28T02:26:48.367Z,18.80
2018-09-28T02:29:16.705Z,18.80
2018-09-28T02:31:45.185Z,18.80
2018-09-28T02:34:13.692Z,18.70
2018-09-28T02:36:41.978Z,18.60
2018-09-28T02:39:10.320Z,18.60
2018-09-28T02:41:38.736Z,18.60
2018-09-28T02:44:07.053Z,18.60
2018-09-28T02:46:35.465Z,18.60
2018-09-28T02:49:03.908Z,18.50
2018-09-28T02:51:32.290Z,18.50
2018-09-28T02:54:00.659Z,18.50
2018-09-28T02:56:29.107Z,18.50
2018-09-28T02:58:57.440Z,18.50
2018-09-28T03:01:25.875Z,18.50
2018-09-28T03:03:54.287Z,18.40
2018-09-28T03:06:22.804Z,18.40
2018-09-28T03:08:51.199Z,18.40
2018-09-28T03:11:19.740Z,18.40
2018-09-28T03:13:48.175Z,18.30
2018-09-28T03:16:16.631Z,18.30
2018-09-28T03:18:44.954Z,18.30
2018-09-28T03:21:13.342Z,18.30
2018-09-28T03:23:41.940Z,18.30
2018-09-28T03:26:10.355Z,18.30
2018-09-28T03:28:38.696Z,18.40
2018-09-28T03:31:07.112Z,18.30
2018-09-28T03:33:35.562Z,18.20
2018-09-28T03:36:04.050Z,18.20
2018-09-28T03:38:32.568Z,18.10
2018-09-28T03:41:00.982Z,18.10
2018-09-28T03:43:29.495Z,18.00
2018-09-28T03:45:57.949Z,18.00
2018-09-28T03:48:26.440Z,18.00
2018-09-28T03:50:54.828Z,18.00
2018-09-28T03:53:23.867Z,17.90
2018-09-28T03:55:52.362Z,18.00
2018-09-28T03:58:20.904Z,18.00
2018-09-28T04:00:49.369Z,17.90
2018-09-28T04:03:17.845Z,17.90
2018-09-28T04:05:46.375Z,17.90
2018-09-28T04:08:14.880Z,17.90
2018-09-28T04:10:43.348Z,18.00
2018-09-28T04:13:11.758Z,17.90
2018-09-28T04:15:40.175Z,17.90
2018-09-28T04:18:08.544Z,17.80
2018-09-28T04:20:36.962Z,17.70
2018-09-28T04:23:05.417Z,17.70
2018-09-28T04:25:33.910Z,17.70
2018-09-28T04:28:02.311Z,17.60
2018-09-28T04:30:30.695Z,17.50
2018-09-28T04:32:59.007Z,17.50
2018-09-28T04:35:27.817Z,17.50
2018-09-28T04:37:56.315Z,17.40
2018-09-28T04:40:24.940Z,17.40
2018-09-28T04:42:53.324Z,17.30
2018-09-28T04:45:21.928Z,17.30
2018-09-28T04:47:50.376Z,17.30
2018-09-28T04:50:18.762Z,17.20
2018-09-28T04:52:47.218Z,17.20
2018-09-28T04:55:15.576Z,17.10
2018-09-28T04:57:43.963Z,17.10
2018-09-28T05:00:12.403Z,17.00
2018-09-28T05:02:40.951Z,17.10
2018-09-28T05:05:09.426Z,17.10
2018-09-28T05:07:37.779Z,17.00
2018-09-28T05:10:06.245Z,17.00
2018-09-28T05:12:34.726Z,17.00
2018-09-28T05:15:03.186Z,16.90
2018-09-28T05:17:31.596Z,16.90
2018-09-28T05:20:00.032Z,16.90
2018-09-28T05:22:28.432Z,16.90
2018-09-28T05:24:56.859Z,16.90
2018-09-28T05:27:25.218Z,16.80
2018-09-28T05:29:53.564Z,16.80
2018-09-28T05:32:22.040Z,16.80
2018-09-28T05:34:50.316Z,16.90
2018-09-28T05:37:18.862Z,16.80
2018-09-28T05:39:47.296Z,16.80
2018-09-28T05:42:15.583Z,16.80
2018-09-28T05:44:44.020Z,16.80
2018-09-28T05:47:12.484Z,16.90
2018-09-28T05:49:40.728Z,16.90
2018-09-28T05:52:09.045Z,16.80
2018-09-28T05:54:37.500Z,16.80
2018-09-28T05:57:06.038Z,16.80
2018-09-28T06:01:45.817Z,16.90
2018-09-28T06:04:19.732Z,16.90
2018-09-28T06:06:48.100Z,16.90
2018-09-28T06:09:16.631Z,16.90
2018-09-28T06:11:45.024Z,16.90
2018-09-28T06:14:16.026Z,16.90
2018-09-28T06:16:44.476Z,16.90
2018-09-28T06:19:12.812Z,17.00
2018-09-28T06:21:41.206Z,16.90
2018-09-28T06:24:09.652Z,16.90
2018-09-28T06:26:38.027Z,17.00
2018-09-28T06:29:06.463Z,17.00
2018-09-28T06:31:34.759Z,17.00
2018-09-28T06:34:03.144Z,17.00
2018-09-28T06:36:31.671Z,17.00
2018-09-28T06:39:00.220Z,17.00
2018-09-28T06:41:28.608Z,17.00
2018-09-28T06:43:56.970Z,17.10
2018-09-28T06:46:25.411Z,17.10
2018-09-28T06:48:53.878Z,17.10
2018-09-28T06:51:22.274Z,17.10
2018-09-28T06:53:50.566Z,17.10
2018-09-28T06:56:19.002Z,17.10
2018-09-28T06:58:47.465Z,17.10
2018-09-28T07:01:15.884Z,17.10
2018-09-28T07:03:44.226Z,17.10
2018-09-28T07:06:12.656Z,17.20
2018-09-28T07:08:41.041Z,17.30
2018-09-28T07:11:09.343Z,17.30
2018-09-28T07:13:37.814Z,17.40
2018-09-28T07:16:07.055Z,17.40
2018-09-28T07:18:35.416Z,17.50
2018-09-28T07:21:03.740Z,17.60
2018-09-28T07:23:32.013Z,17.60
2018-09-28T07:26:00.503Z,17.80
2018-09-28T07:28:28.931Z,17.90
2018-09-28T07:30:57.284Z,17.90
2018-09-28T07:33:26.314Z,17.90
2018-09-28T07:35:54.662Z,18.00
2018-09-28T07:38:23.856Z,18.10
2018-09-28T07:40:52.195Z,18.10
2018-09-28T07:43:21.034Z,18.20
2018-09-28T07:45:49.483Z,18.30
2018-09-28T07:48:17.940Z,18.40
2018-09-28T07:50:46.287Z,18.40
2018-09-28T07:53:14.803Z,18.50
2018-09-28T07:55:43.277Z,18.60
2018-09-28T07:58:11.604Z,18.60
2018-09-28T08:00:39.960Z,18.70
2018-09-28T08:03:08.428Z,18.80
2018-09-28T08:05:36.736Z,18.80
2018-09-28T08:08:05.124Z,18.90
2018-09-28T08:10:33.735Z,19.00
2018-09-28T08:13:02.050Z,19.00
2018-09-28T08:15:30.596Z,19.10
2018-09-28T08:17:59.088Z,19.20
2018-09-28T08:20:27.513Z,19.30
2018-09-28T08:22:55.916Z,19.40
2018-09-28T08:25:24.421Z,19.40
2018-09-28T08:27:52.844Z,19.50
2018-09-28T08:30:21.331Z,19.60
2018-09-28T08:32:49.649Z,19.60
2018-09-28T08:35:18.096Z,19.70
2018-09-28T08:37:46.452Z,19.80
2018-09-28T08:40:14.837Z,19.80
2018-09-28T08:42:43.261Z,19.90
2018-09-28T08:45:11.587Z,20.00
2018-09-28T08:47:39.854Z,20.10
2018-09-28T08:50:08.352Z,20.20
2018-09-28T08:52:36.662Z,20.20
2018-09-28T08:55:05.231Z,20.30
2018-09-28T08:57:33.743Z,20.40
2018-09-28T09:00:02.049Z,20.50
2018-09-28T09:02:30.306Z,20.60
2018-09-28T09:04:58.742Z,20.80
2018-09-28T09:07:27.210Z,20.90
2018-09-28T09:09:55.555Z,21.00
2018-09-28T09:12:23.983Z,21.20
2018-09-28T09:15:17.352Z,21.30
2018-09-28T09:17:45.729Z,21.40
2018-09-28T09:20:14.078Z,21.70
2018-09-28T09:22:42.463Z,21.80
2018-09-28T09:25:10.867Z,22.00
2018-09-28T09:27:39.251Z,22.10
2018-09-28T09:30:07.688Z,22.30
2018-09-28T09:32:35.943Z,22.40
2018-09-28T09:35:04.517Z,22.60
2018-09-28T09:37:32.959Z,22.70
2018-09-28T09:40:01.514Z,22.80
2018-09-28T09:42:29.836Z,23.00
2018-09-28T09:44:58.211Z,23.20
2018-09-28T09:47:26.623Z,23.40
2018-09-28T09:49:55.867Z,23.50
2018-09-28T09:52:24.276Z,23.70
2018-09-28T09:54:52.722Z,23.80
2018-09-28T09:57:21.153Z,24.00
2018-09-28T09:59:49.571Z,24.20
2018-09-28T10:02:23.583Z,24.30
2018-09-28T10:04:51.898Z,24.40
2018-09-28T10:07:20.243Z,24.60
2018-09-28T10:09:48.741Z,24.70
2018-09-28T10:12:17.143Z,24.90
2018-09-28T10:15:23.224Z,25.10
2018-09-28T10:17:51.652Z,25.30
2018-09-28T10:20:20.070Z,25.60
2018-09-28T10:22:48.468Z,25.80
2018-09-28T10:25:16.846Z,26.00
2018-09-28T10:27:45.408Z,26.20
2018-09-28T10:30:13.929Z,26.50
2018-09-28T10:32:42.463Z,26.60
2018-09-28T10:35:10.931Z,26.80
2018-09-28T10:37:39.343Z,27.00
2018-09-28T10:40:07.953Z,27.10
2018-09-28T10:42:36.721Z,27.30
2018-09-28T10:45:05.233Z,27.50
2018-09-28T10:47:33.698Z,27.70
2018-09-28T10:50:02.115Z,27.80
2018-09-28T10:52:30.612Z,27.90
2018-09-28T10:54:58.987Z,28.10
2018-09-28T10:57:27.507Z,28.30
2018-09-28T10:59:56.003Z,28.40
2018-09-28T11:02:24.551Z,28.60
2018-09-28T11:04:52.995Z,28.70
2018-09-28T11:07:21.868Z,28.90
2018-09-28T11:09:50.293Z,29.10
2018-09-28T11:12:18.574Z,29.10
2018-09-28T11:15:37.685Z,29.30
2018-09-28T11:18:06.240Z,29.40
2018-09-28T11:20:34.631Z,29.70
2018-09-28T11:23:03.068Z,29.90
2018-09-28T11:25:31.541Z,30.00
2018-09-28T11:28:00.033Z,30.20
2018-09-28T11:30:28.950Z,30.30
2018-09-28T11:32:57.585Z,30.40
2018-09-28T11:35:25.911Z,30.60
2018-09-28T11:37:54.408Z,30.80
2018-09-28T11:40:22.789Z,31.00
2018-09-28T11:42:51.344Z,31.20
2018-09-28T11:45:19.783Z,31.30
2018-09-28T11:47:48.052Z,31.50
2018-09-28T11:50:16.480Z,31.60
2018-09-28T11:52:44.879Z,31.70
2018-09-28T11:55:13.328Z,31.80
2018-09-28T11:57:41.825Z,32.00
2018-09-28T12:00:10.230Z,32.30
2018-09-28T12:02:38.715Z,32.30
2018-09-28T12:05:07.145Z,32.20
2018-09-28T12:07:35.595Z,32.30
2018-09-28T12:10:04.023Z,32.50
2018-09-28T12:12:32.428Z,32.60
2018-09-28T12:15:35.813Z,32.70
2018-09-28T12:18:04.276Z,32.90
2018-09-28T12:20:32.895Z,32.90
2018-09-28T12:23:01.271Z,32.90
2018-09-28T12:25:29.901Z,32.90
2018-09-28T12:27:58.344Z,33.00
2018-09-28T12:30:26.974Z,33.10
2018-09-28T12:32:55.399Z,33.30
2018-09-28T12:35:23.782Z,33.50
2018-09-28T12:37:52.187Z,33.60
2018-09-28T12:40:20.539Z,33.60
2018-09-28T12:42:48.848Z,33.80
2018-09-28T12:45:17.331Z,33.90
2018-09-28T12:47:45.748Z,33.90
2018-09-28T12:50:14.044Z,34.10
2018-09-28T12:52:42.446Z,34.20
2018-09-28T12:55:10.919Z,34.50
2018-09-28T12:57:39.284Z,34.50
2018-09-28T13:00:07.749Z,34.60
2018-09-28T13:02:36.118Z,34.70
2018-09-28T13:05:04.425Z,34.70
2018-09-28T13:07:32.836Z,34.80
2018-09-28T13:10:01.237Z,34.90
2018-09-28T13:12:29.612Z,35.00
2018-09-28T13:15:32.834Z,35.00
2018-09-28T13:18:01.347Z,35.10
2018-09-28T13:20:30.095Z,35.10
2018-09-28T13:22:58.332Z,35.30
2018-09-28T13:25:26.993Z,35.50
2018-09-28T13:27:55.437Z,35.50
2018-09-28T13:30:23.900Z,35.50
2018-09-28T13:32:52.341Z,35.60
2018-09-28T13:35:20.755Z,35.70
2018-09-28T13:37:49.082Z,35.70
2018-09-28T13:40:17.438Z,35.70
2018-09-28T13:42:45.959Z,35.80
2018-09-28T13:45:14.352Z,35.80
2018-09-28T13:47:42.658Z,35.80
2018-09-28T13:50:11.221Z,35.90
2018-09-28T13:52:39.797Z,35.90
2018-09-28T13:55:08.488Z,35.90
2018-09-28T13:57:36.989Z,36.00
2018-09-28T14:00:05.694Z,36.10
2018-09-28T14:02:34.162Z,36.10
2018-09-28T14:05:02.529Z,36.10
2018-09-28T14:07:30.868Z,36.10
2018-09-28T14:09:59.281Z,36.30
2018-09-28T14:12:27.731Z,36.20
2018-09-28T14:18:09.500Z,36.30
2018-09-28T14:20:37.963Z,36.30
2018-09-28T14:23:06.315Z,36.20
2018-09-28T14:25:34.947Z,36.30
2018-09-28T14:28:03.480Z,36.40
2018-09-28T14:30:32.312Z,36.30
2018-09-28T14:33:00.760Z,36.20
2018-09-28T14:35:29.548Z,36.10
2018-09-28T14:37:57.949Z,36.20
2018-09-28T14:40:26.538Z,36.30
2018-09-28T14:42:54.821Z,36.30
2018-09-28T14:45:23.424Z,36.30
2018-09-28T14:47:51.931Z,36.10
2018-09-28T14:50:20.460Z,36.10
2018-09-28T14:52:48.886Z,36.20
2018-09-28T14:55:17.308Z,36.30
2018-09-28T14:57:45.610Z,36.30
2018-09-28T15:00:13.975Z,36.20
2018-09-28T15:02:42.551Z,36.20
2018-09-28T15:05:10.948Z,36.10
2018-09-28T15:07:39.576Z,36.10
2018-09-28T15:10:07.973Z,36.20
2018-09-28T15:12:36.411Z,36.20
2018-09-28T15:18:25.759Z,36.10
2018-09-28T15:20:54.260Z,35.80
2018-09-28T15:23:22.734Z,35.60
2018-09-28T15:25:51.130Z,35.60
2018-09-28T15:28:19.459Z,35.60
2018-09-28T15:30:47.791Z,35.60
2018-09-28T15:33:16.178Z,35.60
2018-09-28T15:35:44.694Z,35.50
2018-09-28T15:38:13.133Z,35.30
2018-09-28T15:40:41.487Z,35.20
2018-09-28T15:43:09.893Z,35.10
2018-09-28T15:45:38.204Z,35.00
2018-09-28T15:48:06.663Z,34.80
2018-09-28T15:50:35.038Z,34.60
2018-09-28T15:53:03.536Z,34.50
2018-09-28T15:55:32.027Z,34.50
2018-09-28T15:58:00.326Z,34.40
2018-09-28T16:00:29.161Z,34.30
2018-09-28T16:02:57.577Z,34.20
2018-09-28T16:05:25.960Z,34.10
2018-09-28T16:07:54.321Z,34.00
2018-09-28T16:10:22.752Z,33.90
2018-09-28T16:12:51.119Z,33.80
2018-09-28T16:18:43.021Z,33.60
2018-09-28T16:21:11.483Z,33.30
2018-09-28T16:23:39.935Z,33.30
2018-09-28T16:26:08.268Z,33.20
2018-09-28T16:28:36.716Z,33.00
2018-09-28T16:31:05.495Z,32.80
2018-09-28T16:33:33.891Z,32.50
2018-09-28T16:36:02.456Z,32.20
2018-09-28T16:38:30.878Z,32.10
2018-09-28T16:40:59.308Z,31.90
2018-09-28T16:43:27.690Z,31.70
2018-09-28T16:45:57.379Z,31.60
2018-09-28T16:48:26.044Z,31.40
2018-09-28T16:50:54.379Z,31.30
2018-09-28T16:53:22.947Z,31.20
2018-09-28T16:55:51.508Z,31.10
2018-09-28T16:58:20.168Z,30.90
2018-09-28T17:00:48.503Z,30.80
2018-09-28T17:03:16.848Z,30.70
2018-09-28T17:05:45.264Z,30.60
2018-09-28T17:08:13.614Z,30.50
2018-09-28T17:10:42.012Z,30.40
2018-09-28T17:13:10.376Z,30.20
2018-09-28T17:19:01.542Z,30.00
2018-09-28T17:21:30.184Z,29.90
2018-09-28T17:23:58.553Z,29.70
2018-09-28T17:26:27.370Z,29.60
2018-09-28T17:28:55.761Z,29.60
2018-09-28T17:31:24.408Z,29.50
2018-09-28T17:33:52.868Z,29.40
2018-09-28T17:36:21.504Z,29.30
2018-09-28T17:38:50.184Z,29.30
2018-09-28T17:41:19.033Z,29.20
2018-09-28T17:43:47.532Z,29.10
2018-09-28T17:46:16.122Z,29.00
2018-09-28T17:48:44.556Z,28.90
2018-09-28T17:51:12.965Z,28.80
2018-09-28T17:53:41.532Z,28.70
2018-09-28T17:56:09.872Z,28.60
2018-09-28T17:58:38.428Z,28.60
2018-09-28T18:01:06.817Z,28.50
2018-09-28T18:03:35.323Z,28.30
2018-09-28T18:06:03.787Z,28.30
2018-09-28T18:08:32.250Z,28.20
2018-09-28T18:11:00.540Z,28.20
2018-09-28T18:13:29.209Z,28.10
2018-09-28T18:19:20.100Z,28.00
2018-09-28T18:21:48.868Z,28.00
2018-09-28T18:24:17.234Z,27.80
2018-09-28T18:26:45.603Z,27.80
2018-09-28T18:29:14.065Z,27.80
2018-09-28T18:31:42.735Z,27.70
2018-09-28T18:34:11.135Z,27.70
2018-09-28T18:36:39.481Z,27.60
2018-09-28T18:39:09.287Z,27.50
2018-09-28T18:41:38.097Z,27.50
2018-09-28T18:44:06.811Z,27.40
2018-09-28T18:46:35.204Z,27.40
2018-09-28T18:49:03.858Z,27.30
2018-09-28T18:51:32.156Z,27.30
2018-09-28T18:54:00.511Z,27.20
2018-09-28T18:56:28.936Z,27.10
2018-09-28T18:58:57.351Z,27.10
2018-09-28T19:01:25.682Z,27.00
2018-09-28T19:03:54.112Z,27.00
2018-09-28T19:06:22.624Z,26.90
2018-09-28T19:08:51.216Z,26.90
2018-09-28T19:11:19.663Z,26.80
2018-09-28T19:13:48.284Z,26.80
2018-09-28T19:16:55.723Z,26.80
2018-09-28T19:19:24.170Z,26.70
2018-09-28T19:21:53.284Z,26.60
2018-09-28T19:24:21.634Z,26.60
2018-09-28T19:26:50.012Z,26.50
2018-09-28T19:29:18.325Z,26.40
2018-09-28T19:31:46.983Z,26.40
2018-09-28T19:34:15.377Z,26.40
2018-09-28T19:36:43.796Z,26.30
2018-09-28T19:39:12.472Z,26.30
2018-09-28T19:41:40.952Z,26.20
2018-09-28T19:44:09.682Z,26.20
2018-09-28T19:46:38.399Z,26.10
2018-09-28T19:49:07.183Z,26.10
2018-09-28T19:51:35.908Z,26.00
2018-09-28T19:54:04.424Z,25.90
2018-09-28T19:56:32.712Z,25.90
2018-09-28T19:59:01.199Z,25.80
2018-09-28T20:01:29.568Z,25.80
2018-09-28T20:03:58.019Z,25.70
2018-09-28T20:06:26.403Z,25.60
2018-09-28T20:08:54.851Z,25.60
2018-09-28T20:11:23.223Z,25.50
2018-09-28T20:13:51.655Z,25.50
2018-09-28T20:17:00.387Z,25.50
2018-09-28T20:19:28.696Z,25.50
2018-09-28T20:21:56.996Z,25.40
2018-09-28T20:24:25.495Z,25.40
2018-09-28T20:30:14.811Z,25.30
2018-09-28T20:32:43.288Z,25.30
2018-09-28T20:35:11.724Z,25.30
2018-09-28T20:37:40.100Z,25.20
2018-09-28T20:40:08.536Z,25.10
2018-09-28T20:42:36.851Z,25.00
2018-09-28T20:45:05.202Z,24.90
2018-09-28T20:47:33.803Z,24.90
2018-09-28T20:50:02.239Z,24.90
2018-09-28T20:52:30.619Z,24.80
2018-09-28T20:54:58.981Z,24.70
2018-09-28T20:57:27.227Z,24.70
2018-09-28T20:59:55.599Z,24.70
2018-09-28T21:02:24.068Z,24.80
2018-09-28T21:04:52.430Z,24.70
2018-09-28T21:07:20.848Z,24.70
2018-09-28T21:09:49.067Z,24.60
2018-09-28T21:12:17.376Z,24.60
2018-09-28T21:15:20.527Z,24.60
2018-09-28T21:17:48.844Z,24.60
2018-09-28T21:20:17.288Z,24.50
2018-09-28T21:22:45.704Z,24.40
2018-09-28T21:25:14.083Z,24.30
2018-09-28T21:27:42.495Z,24.30
2018-09-28T21:30:10.971Z,24.20
2018-09-28T21:32:39.317Z,24.20
2018-09-28T21:35:07.845Z,24.20
2018-09-28T21:37:36.219Z,24.20
2018-09-28T21:40:04.576Z,24.20
2018-09-28T21:42:32.956Z,24.20
2018-09-28T21:45:01.328Z,24.10
2018-09-28T21:47:29.768Z,24.10
2018-09-28T21:49:58.220Z,24.10
2018-09-28T21:52:26.583Z,24.00
2018-09-28T21:54:54.965Z,23.90
2018-09-28T21:57:23.409Z,23.80
2018-09-28T21:59:51.771Z,23.70
2018-09-28T22:02:20.263Z,23.60
2018-09-28T22:04:48.651Z,23.70
2018-09-28T22:07:17.043Z,23.70
2018-09-28T22:09:45.392Z,23.70
2018-09-28T22:12:13.859Z,23.70
2018-09-28T22:14:42.351Z,23.60
2018-09-28T22:17:10.647Z,23.60
2018-09-28T22:19:38.980Z,23.50
2018-09-28T22:22:07.250Z,23.50
2018-09-28T22:24:40.089Z,23.40
2018-09-28T22:27:12.902Z,23.30
2018-09-28T22:29:41.355Z,23.20
2018-09-28T22:32:09.748Z,23.20
2018-09-28T22:34:38.140Z,23.20
2018-09-28T22:37:06.468Z,23.20
2018-09-28T22:39:34.843Z,23.20
2018-09-28T22:42:03.162Z,23.10
2018-09-28T22:44:31.456Z,23.00
2018-09-28T22:46:59.862Z,23.00
2018-09-28T22:49:28.227Z,22.90
2018-09-28T22:51:56.663Z,22.90
2018-09-28T22:54:25.092Z,22.90
2018-09-28T22:56:53.503Z,22.90
2018-09-28T22:59:21.931Z,22.90
2018-09-28T23:01:50.330Z,22.90
2018-09-28T23:04:18.811Z,22.80
2018-09-28T23:06:46.999Z,22.80
2018-09-28T23:09:15.434Z,22.80
2018-09-28T23:11:43.794Z,22.70
2018-09-28T23:14:12.146Z,22.70
2018-09-28T23:16:40.447Z,22.70
2018-09-28T23:19:08.810Z,22.60
2018-09-28T23:21:37.267Z,22.50
2018-09-28T23:24:05.680Z,22.50
2018-09-28T23:26:34.011Z,22.40
2018-09-28T23:29:02.399Z,22.50
2018-09-28T23:31:30.832Z,22.40
2018-09-28T23:33:59.099Z,22.30
2018-09-28T23:36:27.408Z,22.30
2018-09-28T23:38:55.776Z,22.30
2018-09-28T23:41:24.084Z,22.20
2018-09-28T23:43:52.444Z,22.20
2018-09-28T23:46:20.887Z,22.10
2018-09-28T23:48:49.391Z,22.10
2018-09-28T23:51:17.827Z,22.00
2018-09-28T23:53:47.159Z,22.00
2018-09-28T23:56:15.504Z,22.00
2018-09-28T23:58:43.830Z,22.10
